sensor_id;sensor_type;location;lat;lon;timestamp;P1;durP1;ratioP1;P2;durP2;ratioP2
72394;SDS011;60384;48.152;11.614;2024-02-16T00:01:14;10.18;;;4.65;;
72394;SDS011;60384;48.152;11.614;2024-02-16T00:04:16;8.30;;;4.30;;
72394;SDS011;60384;48.152;11.614;2024-02-16T00:10:20;8.68;;;4.32;;
72394;SDS011;60384;48.152;11.614;2024-02-16T00:13:22;9.68;;;4.53;;
72394;SDS011;60384;48.152;11.614;2024-02-16T00:16:25;9.60;;;4.82;;
72394;SDS011;60384;48.152;11.614;2024-02-16T00:19:27;9.93;;;4.65;;
72394;SDS011;60384;48.152;11.614;2024-02-16T00:22:29;11.88;;;4.85;;
72394;SDS011;60384;48.152;11.614;2024-02-16T00:25:31;10.45;;;4.57;;
72394;SDS011;60384;48.152;11.614;2024-02-16T00:28:33;11.38;;;4.50;;
72394;SDS011;60384;48.152;11.614;2024-02-16T00:31:36;9.13;;;4.60;;
72394;SDS011;60384;48.152;11.614;2024-02-16T00:34:38;9.50;;;4.97;;
72394;SDS011;60384;48.152;11.614;2024-02-16T00:37:41;9.23;;;4.35;;
72394;SDS011;60384;48.152;11.614;2024-02-16T00:40:43;10.70;;;4.35;;
72394;SDS011;60384;48.152;11.614;2024-02-16T00:43:45;9.88;;;4.55;;
72394;SDS011;60384;48.152;11.614;2024-02-16T00:46:48;9.25;;;4.10;;
72394;SDS011;60384;48.152;11.614;2024-02-16T00:49:50;8.45;;;4.03;;
72394;SDS011;60384;48.152;11.614;2024-02-16T00:52:52;8.55;;;3.95;;
72394;SDS011;60384;48.152;11.614;2024-02-16T00:55:54;8.52;;;4.15;;
72394;SDS011;60384;48.152;11.614;2024-02-16T00:58:56;10.63;;;4.82;;
72394;SDS011;60384;48.152;11.614;2024-02-16T01:01:59;10.50;;;4.55;;
72394;SDS011;60384;48.152;11.614;2024-02-16T01:05:01;9.23;;;4.45;;
72394;SDS011;60384;48.152;11.614;2024-02-16T01:08:04;11.45;;;4.50;;
72394;SDS011;60384;48.152;11.614;2024-02-16T01:11:06;8.18;;;4.00;;
72394;SDS011;60384;48.152;11.614;2024-02-16T01:14:08;8.60;;;4.53;;
72394;SDS011;60384;48.152;11.614;2024-02-16T01:17:11;9.23;;;4.32;;
72394;SDS011;60384;48.152;11.614;2024-02-16T01:20:13;9.20;;;4.35;;
72394;SDS011;60384;48.152;11.614;2024-02-16T01:23:15;10.02;;;4.05;;
72394;SDS011;60384;48.152;11.614;2024-02-16T01:26:16;8.48;;;3.90;;
72394;SDS011;60384;48.152;11.614;2024-02-16T01:32:22;9.82;;;4.80;;
72394;SDS011;60384;48.152;11.614;2024-02-16T01:35:24;10.75;;;4.90;;
72394;SDS011;60384;48.152;11.614;2024-02-16T01:38:26;9.90;;;4.70;;
72394;SDS011;60384;48.152;11.614;2024-02-16T01:41:28;11.95;;;4.70;;
72394;SDS011;60384;48.152;11.614;2024-02-16T01:44:30;11.80;;;4.75;;
72394;SDS011;60384;48.152;11.614;2024-02-16T01:47:34;12.18;;;4.65;;
72394;SDS011;60384;48.152;11.614;2024-02-16T01:50:36;8.30;;;3.85;;
72394;SDS011;60384;48.152;11.614;2024-02-16T01:53:38;10.40;;;4.18;;
72394;SDS011;60384;48.152;11.614;2024-02-16T01:56:41;8.75;;;4.15;;
72394;SDS011;60384;48.152;11.614;2024-02-16T01:59:42;10.13;;;4.53;;
72394;SDS011;60384;48.152;11.614;2024-02-16T02:02:47;9.20;;;4.20;;
72394;SDS011;60384;48.152;11.614;2024-02-16T02:05:49;9.10;;;4.60;;
72394;SDS011;60384;48.152;11.614;2024-02-16T02:08:54;8.10;;;4.18;;
72394;SDS011;60384;48.152;11.614;2024-02-16T02:11:56;9.85;;;4.63;;
72394;SDS011;60384;48.152;11.614;2024-02-16T02:14:58;8.60;;;4.03;;
72394;SDS011;60384;48.152;11.614;2024-02-16T02:18:02;8.40;;;4.13;;
72394;SDS011;60384;48.152;11.614;2024-02-16T02:21:04;8.48;;;4.35;;
72394;SDS011;60384;48.152;11.614;2024-02-16T02:24:08;9.63;;;4.30;;
72394;SDS011;60384;48.152;11.614;2024-02-16T02:27:11;8.88;;;4.38;;
72394;SDS011;60384;48.152;11.614;2024-02-16T02:33:17;8.20;;;4.22;;
72394;SDS011;60384;48.152;11.614;2024-02-16T02:36:20;8.55;;;4.13;;
72394;SDS011;60384;48.152;11.614;2024-02-16T02:39:23;9.50;;;4.80;;
72394;SDS011;60384;48.152;11.614;2024-02-16T02:42:25;8.98;;;4.22;;
72394;SDS011;60384;48.152;11.614;2024-02-16T02:45:28;10.13;;;4.32;;
72394;SDS011;60384;48.152;11.614;2024-02-16T02:48:31;10.82;;;4.60;;
72394;SDS011;60384;48.152;11.614;2024-02-16T02:51:33;9.55;;;4.25;;
72394;SDS011;60384;48.152;11.614;2024-02-16T02:54:36;9.13;;;4.13;;
72394;SDS011;60384;48.152;11.614;2024-02-16T02:57:38;8.32;;;4.38;;
72394;SDS011;60384;48.152;11.614;2024-02-16T03:00:40;9.27;;;4.28;;
72394;SDS011;60384;48.152;11.614;2024-02-16T03:03:42;9.50;;;4.55;;
72394;SDS011;60384;48.152;11.614;2024-02-16T03:06:44;8.88;;;3.92;;
72394;SDS011;60384;48.152;11.614;2024-02-16T03:09:47;9.43;;;5.32;;
72394;SDS011;60384;48.152;11.614;2024-02-16T03:12:49;9.98;;;4.20;;
72394;SDS011;60384;48.152;11.614;2024-02-16T03:15:51;11.07;;;4.50;;
72394;SDS011;60384;48.152;11.614;2024-02-16T03:18:53;10.13;;;3.90;;
72394;SDS011;60384;48.152;11.614;2024-02-16T03:24:59;11.93;;;4.80;;
72394;SDS011;60384;48.152;11.614;2024-02-16T03:28:01;10.43;;;4.45;;
72394;SDS011;60384;48.152;11.614;2024-02-16T03:31:03;8.60;;;3.90;;
72394;SDS011;60384;48.152;11.614;2024-02-16T03:34:05;10.00;;;4.07;;
72394;SDS011;60384;48.152;11.614;2024-02-16T03:37:07;7.22;;;3.95;;
72394;SDS011;60384;48.152;11.614;2024-02-16T03:40:11;8.32;;;4.03;;
72394;SDS011;60384;48.152;11.614;2024-02-16T03:43:14;9.35;;;3.85;;
72394;SDS011;60384;48.152;11.614;2024-02-16T03:46:16;11.45;;;3.95;;
72394;SDS011;60384;48.152;11.614;2024-02-16T03:49:18;8.43;;;3.97;;
72394;SDS011;60384;48.152;11.614;2024-02-16T03:52:19;9.15;;;4.50;;
72394;SDS011;60384;48.152;11.614;2024-02-16T03:55:23;7.63;;;3.92;;
72394;SDS011;60384;48.152;11.614;2024-02-16T03:58:25;9.27;;;4.43;;
72394;SDS011;60384;48.152;11.614;2024-02-16T04:01:27;10.95;;;4.40;;
72394;SDS011;60384;48.152;11.614;2024-02-16T04:04:29;8.60;;;4.00;;
72394;SDS011;60384;48.152;11.614;2024-02-16T04:07:31;9.30;;;4.32;;
72394;SDS011;60384;48.152;11.614;2024-02-16T04:10:34;9.65;;;4.57;;
72394;SDS011;60384;48.152;11.614;2024-02-16T04:13:36;9.73;;;4.60;;
72394;SDS011;60384;48.152;11.614;2024-02-16T04:16:38;9.10;;;4.20;;
72394;SDS011;60384;48.152;11.614;2024-02-16T04:19:40;9.10;;;3.90;;
72394;SDS011;60384;48.152;11.614;2024-02-16T04:22:42;9.48;;;3.47;;
72394;SDS011;60384;48.152;11.614;2024-02-16T04:25:45;6.93;;;3.38;;
72394;SDS011;60384;48.152;11.614;2024-02-16T04:28:47;8.43;;;4.10;;
72394;SDS011;60384;48.152;11.614;2024-02-16T04:31:49;9.52;;;3.55;;
72394;SDS011;60384;48.152;11.614;2024-02-16T04:34:51;8.18;;;3.40;;
72394;SDS011;60384;48.152;11.614;2024-02-16T04:37:53;7.20;;;2.95;;
72394;SDS011;60384;48.152;11.614;2024-02-16T04:40:57;7.75;;;3.30;;
72394;SDS011;60384;48.152;11.614;2024-02-16T04:43:59;6.40;;;2.85;;
72394;SDS011;60384;48.152;11.614;2024-02-16T04:47:01;7.70;;;3.55;;
72394;SDS011;60384;48.152;11.614;2024-02-16T04:50:04;6.95;;;3.00;;
72394;SDS011;60384;48.152;11.614;2024-02-16T04:53:09;8.38;;;3.40;;
72394;SDS011;60384;48.152;11.614;2024-02-16T04:56:13;6.32;;;2.92;;
72394;SDS011;60384;48.152;11.614;2024-02-16T04:59:15;6.40;;;2.95;;
72394;SDS011;60384;48.152;11.614;2024-02-16T05:05:19;7.05;;;3.08;;
72394;SDS011;60384;48.152;11.614;2024-02-16T05:08:21;8.65;;;2.85;;
72394;SDS011;60384;48.152;11.614;2024-02-16T05:11:25;6.80;;;2.80;;
72394;SDS011;60384;48.152;11.614;2024-02-16T05:14:28;5.18;;;2.70;;
72394;SDS011;60384;48.152;11.614;2024-02-16T05:17:30;8.00;;;2.88;;
72394;SDS011;60384;48.152;11.614;2024-02-16T05:20:31;7.93;;;3.10;;
72394;SDS011;60384;48.152;11.614;2024-02-16T05:23:34;5.78;;;2.60;;
72394;SDS011;60384;48.152;11.614;2024-02-16T05:26:37;7.20;;;2.70;;
72394;SDS011;60384;48.152;11.614;2024-02-16T05:29:39;7.05;;;2.83;;
72394;SDS011;60384;48.152;11.614;2024-02-16T05:32:41;7.13;;;2.38;;
72394;SDS011;60384;48.152;11.614;2024-02-16T05:35:45;6.00;;;2.50;;
72394;SDS011;60384;48.152;11.614;2024-02-16T05:38:51;5.20;;;2.38;;
72394;SDS011;60384;48.152;11.614;2024-02-16T05:41:56;6.47;;;2.63;;
72394;SDS011;60384;48.152;11.614;2024-02-16T05:44:58;6.57;;;2.40;;
72394;SDS011;60384;48.152;11.614;2024-02-16T05:48:00;5.38;;;2.13;;
72394;SDS011;60384;48.152;11.614;2024-02-16T05:51:02;7.93;;;2.33;;
72394;SDS011;60384;48.152;11.614;2024-02-16T05:54:05;6.00;;;2.45;;
72394;SDS011;60384;48.152;11.614;2024-02-16T05:57:09;7.07;;;2.40;;
72394;SDS011;60384;48.152;11.614;2024-02-16T06:00:13;5.55;;;2.20;;
72394;SDS011;60384;48.152;11.614;2024-02-16T06:03:15;7.72;;;2.50;;
72394;SDS011;60384;48.152;11.614;2024-02-16T06:06:19;6.55;;;2.72;;
72394;SDS011;60384;48.152;11.614;2024-02-16T06:09:21;7.03;;;2.70;;
72394;SDS011;60384;48.152;11.614;2024-02-16T06:12:24;7.88;;;2.58;;
72394;SDS011;60384;48.152;11.614;2024-02-16T06:15:26;6.07;;;2.58;;
72394;SDS011;60384;48.152;11.614;2024-02-16T06:18:28;8.40;;;3.03;;
72394;SDS011;60384;48.152;11.614;2024-02-16T06:21:30;7.43;;;2.67;;
72394;SDS011;60384;48.152;11.614;2024-02-16T06:24:32;6.57;;;2.42;;
72394;SDS011;60384;48.152;11.614;2024-02-16T06:27:36;8.75;;;2.47;;
72394;SDS011;60384;48.152;11.614;2024-02-16T06:30:38;7.28;;;2.50;;
72394;SDS011;60384;48.152;11.614;2024-02-16T06:33:40;8.40;;;2.90;;
72394;SDS011;60384;48.152;11.614;2024-02-16T06:36:42;9.57;;;3.42;;
72394;SDS011;60384;48.152;11.614;2024-02-16T06:39:44;7.45;;;2.70;;
72394;SDS011;60384;48.152;11.614;2024-02-16T06:42:47;4.28;;;2.03;;
72394;SDS011;60384;48.152;11.614;2024-02-16T06:45:50;7.68;;;2.70;;
72394;SDS011;60384;48.152;11.614;2024-02-16T06:48:52;5.93;;;2.25;;
72394;SDS011;60384;48.152;11.614;2024-02-16T06:51:56;10.65;;;2.85;;
72394;SDS011;60384;48.152;11.614;2024-02-16T06:54:58;6.88;;;2.83;;
72394;SDS011;60384;48.152;11.614;2024-02-16T06:58:02;5.35;;;2.40;;
72394;SDS011;60384;48.152;11.614;2024-02-16T07:01:04;7.47;;;2.90;;
72394;SDS011;60384;48.152;11.614;2024-02-16T07:04:06;5.75;;;2.22;;
72394;SDS011;60384;48.152;11.614;2024-02-16T07:07:08;7.63;;;2.75;;
72394;SDS011;60384;48.152;11.614;2024-02-16T07:10:10;5.30;;;2.28;;
72394;SDS011;60384;48.152;11.614;2024-02-16T07:13:15;6.13;;;2.50;;
72394;SDS011;60384;48.152;11.614;2024-02-16T07:16:17;7.18;;;2.85;;
72394;SDS011;60384;48.152;11.614;2024-02-16T07:19:19;10.35;;;2.90;;
72394;SDS011;60384;48.152;11.614;2024-02-16T07:22:21;6.03;;;2.42;;
72394;SDS011;60384;48.152;11.614;2024-02-16T07:25:23;5.63;;;2.33;;
72394;SDS011;60384;48.152;11.614;2024-02-16T07:31:32;5.82;;;2.60;;
72394;SDS011;60384;48.152;11.614;2024-02-16T07:34:35;6.45;;;2.55;;
72394;SDS011;60384;48.152;11.614;2024-02-16T07:37:37;7.82;;;2.90;;
72394;SDS011;60384;48.152;11.614;2024-02-16T07:40:38;5.68;;;2.35;;
72394;SDS011;60384;48.152;11.614;2024-02-16T07:43:42;6.32;;;2.45;;
72394;SDS011;60384;48.152;11.614;2024-02-16T07:46:44;6.35;;;2.45;;
72394;SDS011;60384;48.152;11.614;2024-02-16T07:52:48;8.53;;;2.70;;
72394;SDS011;60384;48.152;11.614;2024-02-16T07:55:51;7.90;;;2.92;;
72394;SDS011;60384;48.152;11.614;2024-02-16T07:58:54;7.53;;;3.33;;
72394;SDS011;60384;48.152;11.614;2024-02-16T08:01:56;6.90;;;2.63;;
72394;SDS011;60384;48.152;11.614;2024-02-16T08:04:58;6.57;;;2.72;;
72394;SDS011;60384;48.152;11.614;2024-02-16T08:08:00;8.65;;;2.83;;
72394;SDS011;60384;48.152;11.614;2024-02-16T08:11:03;9.20;;;2.70;;
72394;SDS011;60384;48.152;11.614;2024-02-16T08:14:06;9.75;;;2.88;;
72394;SDS011;60384;48.152;11.614;2024-02-16T08:17:09;9.88;;;2.85;;
72394;SDS011;60384;48.152;11.614;2024-02-16T08:20:11;9.65;;;3.10;;
72394;SDS011;60384;48.152;11.614;2024-02-16T08:23:14;13.63;;;2.70;;
72394;SDS011;60384;48.152;11.614;2024-02-16T08:26:16;8.25;;;2.78;;
72394;SDS011;60384;48.152;11.614;2024-02-16T08:29:20;8.65;;;2.80;;
72394;SDS011;60384;48.152;11.614;2024-02-16T08:32:22;9.38;;;3.28;;
72394;SDS011;60384;48.152;11.614;2024-02-16T08:35:24;6.25;;;2.50;;
72394;SDS011;60384;48.152;11.614;2024-02-16T08:38:26;5.97;;;1.92;;
72394;SDS011;60384;48.152;11.614;2024-02-16T08:41:28;5.38;;;2.20;;
72394;SDS011;60384;48.152;11.614;2024-02-16T08:44:31;5.13;;;1.70;;
72394;SDS011;60384;48.152;11.614;2024-02-16T08:47:33;5.60;;;2.53;;
72394;SDS011;60384;48.152;11.614;2024-02-16T08:50:35;12.98;;;2.95;;
72394;SDS011;60384;48.152;11.614;2024-02-16T08:53:37;7.70;;;2.60;;
72394;SDS011;60384;48.152;11.614;2024-02-16T08:56:39;12.02;;;2.80;;
72394;SDS011;60384;48.152;11.614;2024-02-16T08:59:43;6.32;;;2.83;;
72394;SDS011;60384;48.152;11.614;2024-02-16T09:02:46;6.05;;;2.33;;
72394;SDS011;60384;48.152;11.614;2024-02-16T09:08:49;10.73;;;2.90;;
72394;SDS011;60384;48.152;11.614;2024-02-16T09:11:53;10.70;;;2.75;;
72394;SDS011;60384;48.152;11.614;2024-02-16T09:14:56;11.85;;;2.78;;
72394;SDS011;60384;48.152;11.614;2024-02-16T09:17:58;7.70;;;2.70;;
72394;SDS011;60384;48.152;11.614;2024-02-16T09:21:00;10.88;;;2.80;;
72394;SDS011;60384;48.152;11.614;2024-02-16T09:24:02;7.63;;;2.70;;
72394;SDS011;60384;48.152;11.614;2024-02-16T09:27:10;6.55;;;2.55;;
72394;SDS011;60384;48.152;11.614;2024-02-16T09:33:16;6.63;;;2.33;;
72394;SDS011;60384;48.152;11.614;2024-02-16T09:36:18;6.00;;;2.10;;
72394;SDS011;60384;48.152;11.614;2024-02-16T09:42:22;8.20;;;2.00;;
72394;SDS011;60384;48.152;11.614;2024-02-16T09:45:27;7.75;;;1.83;;
72394;SDS011;60384;48.152;11.614;2024-02-16T09:48:30;7.75;;;1.92;;
72394;SDS011;60384;48.152;11.614;2024-02-16T09:51:35;4.80;;;1.92;;
72394;SDS011;60384;48.152;11.614;2024-02-16T09:54:38;4.28;;;1.48;;
72394;SDS011;60384;48.152;11.614;2024-02-16T09:57:40;3.90;;;1.60;;
72394;SDS011;60384;48.152;11.614;2024-02-16T10:00:47;5.25;;;1.55;;
72394;SDS011;60384;48.152;11.614;2024-02-16T10:03:49;4.35;;;1.40;;
72394;SDS011;60384;48.152;11.614;2024-02-16T10:06:52;5.60;;;1.63;;
72394;SDS011;60384;48.152;11.614;2024-02-16T10:09:53;3.63;;;1.55;;
72394;SDS011;60384;48.152;11.614;2024-02-16T10:13:05;5.53;;;1.50;;
72394;SDS011;60384;48.152;11.614;2024-02-16T10:16:10;6.18;;;1.63;;
72394;SDS011;60384;48.152;11.614;2024-02-16T10:19:13;4.30;;;1.80;;
72394;SDS011;60384;48.152;11.614;2024-02-16T10:28:19;4.93;;;1.40;;
72394;SDS011;60384;48.152;11.614;2024-02-16T10:31:29;3.97;;;1.40;;
72394;SDS011;60384;48.152;11.614;2024-02-16T10:34:33;5.05;;;1.30;;
72394;SDS011;60384;48.152;11.614;2024-02-16T10:37:37;5.72;;;1.48;;
72394;SDS011;60384;48.152;11.614;2024-02-16T10:40:40;4.25;;;1.48;;
72394;SDS011;60384;48.152;11.614;2024-02-16T10:43:45;3.75;;;1.20;;
72394;SDS011;60384;48.152;11.614;2024-02-16T10:46:51;4.60;;;1.30;;
72394;SDS011;60384;48.152;11.614;2024-02-16T10:49:53;3.35;;;1.23;;
72394;SDS011;60384;48.152;11.614;2024-02-16T10:52:55;3.03;;;1.10;;
72394;SDS011;60384;48.152;11.614;2024-02-16T10:56:00;4.60;;;1.20;;
72394;SDS011;60384;48.152;11.614;2024-02-16T10:59:03;3.03;;;1.30;;
72394;SDS011;60384;48.152;11.614;2024-02-16T11:02:07;4.47;;;1.30;;
72394;SDS011;60384;48.152;11.614;2024-02-16T11:05:09;3.97;;;1.40;;
72394;SDS011;60384;48.152;11.614;2024-02-16T11:08:12;4.78;;;1.50;;
72394;SDS011;60384;48.152;11.614;2024-02-16T11:11:22;3.80;;;1.50;;
72394;SDS011;60384;48.152;11.614;2024-02-16T11:14:33;7.00;;;1.67;;
72394;SDS011;60384;48.152;11.614;2024-02-16T11:17:37;4.50;;;1.40;;
72394;SDS011;60384;48.152;11.614;2024-02-16T11:20:41;4.13;;;1.40;;
72394;SDS011;60384;48.152;11.614;2024-02-16T11:23:44;5.00;;;1.25;;
72394;SDS011;60384;48.152;11.614;2024-02-16T11:29:48;4.30;;;1.58;;
72394;SDS011;60384;48.152;11.614;2024-02-16T11:32:52;4.68;;;1.40;;
72394;SDS011;60384;48.152;11.614;2024-02-16T11:35:54;3.40;;;1.40;;
72394;SDS011;60384;48.152;11.614;2024-02-16T11:38:57;4.97;;;1.40;;
72394;SDS011;60384;48.152;11.614;2024-02-16T11:42:00;3.22;;;1.23;;
72394;SDS011;60384;48.152;11.614;2024-02-16T11:45:05;1.73;;;0.90;;
72394;SDS011;60384;48.152;11.614;2024-02-16T11:48:09;2.92;;;1.23;;
72394;SDS011;60384;48.152;11.614;2024-02-16T11:51:15;3.65;;;1.42;;
72394;SDS011;60384;48.152;11.614;2024-02-16T11:54:28;4.53;;;1.48;;
72394;SDS011;60384;48.152;11.614;2024-02-16T11:57:30;6.10;;;1.65;;
72394;SDS011;60384;48.152;11.614;2024-02-16T12:00:33;3.78;;;1.40;;
72394;SDS011;60384;48.152;11.614;2024-02-16T12:06:37;2.97;;;1.40;;
72394;SDS011;60384;48.152;11.614;2024-02-16T12:09:40;3.60;;;1.60;;
72394;SDS011;60384;48.152;11.614;2024-02-16T12:12:42;4.53;;;1.65;;
72394;SDS011;60384;48.152;11.614;2024-02-16T12:18:48;3.97;;;1.55;;
72394;SDS011;60384;48.152;11.614;2024-02-16T12:21:50;5.15;;;1.40;;
72394;SDS011;60384;48.152;11.614;2024-02-16T12:24:53;3.03;;;1.40;;
72394;SDS011;60384;48.152;11.614;2024-02-16T12:30:56;6.00;;;1.38;;
72394;SDS011;60384;48.152;11.614;2024-02-16T12:34:00;2.33;;;1.00;;
72394;SDS011;60384;48.152;11.614;2024-02-16T12:37:04;3.67;;;1.30;;
72394;SDS011;60384;48.152;11.614;2024-02-16T12:40:08;4.15;;;1.25;;
72394;SDS011;60384;48.152;11.614;2024-02-16T12:43:10;3.80;;;1.40;;
72394;SDS011;60384;48.152;11.614;2024-02-16T12:46:13;3.13;;;1.23;;
72394;SDS011;60384;48.152;11.614;2024-02-16T12:49:16;3.80;;;1.40;;
72394;SDS011;60384;48.152;11.614;2024-02-16T12:52:22;3.80;;;1.52;;
72394;SDS011;60384;48.152;11.614;2024-02-16T12:55:24;4.07;;;1.50;;
72394;SDS011;60384;48.152;11.614;2024-02-16T12:58:27;3.58;;;1.20;;
72394;SDS011;60384;48.152;11.614;2024-02-16T13:01:33;4.80;;;1.40;;
72394;SDS011;60384;48.152;11.614;2024-02-16T13:04:36;3.25;;;1.60;;
72394;SDS011;60384;48.152;11.614;2024-02-16T13:07:38;4.43;;;1.50;;
72394;SDS011;60384;48.152;11.614;2024-02-16T13:10:41;4.57;;;1.52;;
72394;SDS011;60384;48.152;11.614;2024-02-16T13:13:44;3.85;;;1.50;;
72394;SDS011;60384;48.152;11.614;2024-02-16T13:19:50;1.77;;;1.23;;
72394;SDS011;60384;48.152;11.614;2024-02-16T13:22:51;6.07;;;1.35;;
72394;SDS011;60384;48.152;11.614;2024-02-16T13:25:53;4.53;;;1.55;;
72394;SDS011;60384;48.152;11.614;2024-02-16T13:28:56;4.63;;;1.70;;
72394;SDS011;60384;48.152;11.614;2024-02-16T13:31:59;6.25;;;1.60;;
72394;SDS011;60384;48.152;11.614;2024-02-16T13:35:03;3.92;;;1.50;;
72394;SDS011;60384;48.152;11.614;2024-02-16T13:38:05;3.22;;;1.33;;
72394;SDS011;60384;48.152;11.614;2024-02-16T13:41:07;3.75;;;1.52;;
72394;SDS011;60384;48.152;11.614;2024-02-16T13:44:09;5.72;;;1.80;;
72394;SDS011;60384;48.152;11.614;2024-02-16T13:47:11;4.70;;;1.50;;
72394;SDS011;60384;48.152;11.614;2024-02-16T13:50:14;4.38;;;1.50;;
72394;SDS011;60384;48.152;11.614;2024-02-16T13:53:17;4.25;;;1.58;;
72394;SDS011;60384;48.152;11.614;2024-02-16T13:56:19;5.15;;;1.63;;
72394;SDS011;60384;48.152;11.614;2024-02-16T13:59:21;3.17;;;1.55;;
72394;SDS011;60384;48.152;11.614;2024-02-16T14:02:23;5.10;;;1.60;;
72394;SDS011;60384;48.152;11.614;2024-02-16T14:05:26;4.60;;;1.70;;
72394;SDS011;60384;48.152;11.614;2024-02-16T14:08:28;3.17;;;1.58;;
72394;SDS011;60384;48.152;11.614;2024-02-16T14:11:30;3.10;;;1.33;;
72394;SDS011;60384;48.152;11.614;2024-02-16T14:14:35;4.68;;;1.60;;
72394;SDS011;60384;48.152;11.614;2024-02-16T14:17:38;4.88;;;1.50;;
72394;SDS011;60384;48.152;11.614;2024-02-16T14:20:41;4.55;;;1.60;;
72394;SDS011;60384;48.152;11.614;2024-02-16T14:23:43;5.80;;;1.48;;
72394;SDS011;60384;48.152;11.614;2024-02-16T14:29:47;3.17;;;1.40;;
72394;SDS011;60384;48.152;11.614;2024-02-16T14:32:48;3.55;;;1.40;;
72394;SDS011;60384;48.152;11.614;2024-02-16T14:35:52;7.07;;;1.70;;
72394;SDS011;60384;48.152;11.614;2024-02-16T14:38:54;4.45;;;1.48;;
72394;SDS011;60384;48.152;11.614;2024-02-16T14:41:56;5.05;;;1.77;;
72394;SDS011;60384;48.152;11.614;2024-02-16T14:44:58;4.43;;;1.70;;
72394;SDS011;60384;48.152;11.614;2024-02-16T14:48:00;3.60;;;1.30;;
72394;SDS011;60384;48.152;11.614;2024-02-16T14:51:03;3.40;;;1.48;;
72394;SDS011;60384;48.152;11.614;2024-02-16T14:54:06;4.95;;;1.60;;
72394;SDS011;60384;48.152;11.614;2024-02-16T14:57:08;4.80;;;1.77;;
72394;SDS011;60384;48.152;11.614;2024-02-16T15:00:11;3.40;;;1.58;;
72394;SDS011;60384;48.152;11.614;2024-02-16T15:03:14;6.28;;;1.50;;
72394;SDS011;60384;48.152;11.614;2024-02-16T15:06:20;3.35;;;1.45;;
72394;SDS011;60384;48.152;11.614;2024-02-16T15:09:22;5.22;;;1.90;;
72394;SDS011;60384;48.152;11.614;2024-02-16T15:12:24;4.85;;;1.75;;
72394;SDS011;60384;48.152;11.614;2024-02-16T15:18:28;5.57;;;1.25;;
72394;SDS011;60384;48.152;11.614;2024-02-16T15:21:31;3.78;;;1.58;;
72394;SDS011;60384;48.152;11.614;2024-02-16T15:24:33;3.90;;;1.40;;
72394;SDS011;60384;48.152;11.614;2024-02-16T15:27:36;6.72;;;1.65;;
72394;SDS011;60384;48.152;11.614;2024-02-16T15:30:41;5.60;;;1.77;;
72394;SDS011;60384;48.152;11.614;2024-02-16T15:33:42;5.13;;;1.63;;
72394;SDS011;60384;48.152;11.614;2024-02-16T15:36:46;4.93;;;1.52;;
72394;SDS011;60384;48.152;11.614;2024-02-16T15:39:48;6.30;;;1.70;;
72394;SDS011;60384;48.152;11.614;2024-02-16T15:42:59;4.97;;;1.50;;
72394;SDS011;60384;48.152;11.614;2024-02-16T15:46:02;5.28;;;1.63;;
72394;SDS011;60384;48.152;11.614;2024-02-16T15:49:04;7.38;;;1.70;;
72394;SDS011;60384;48.152;11.614;2024-02-16T15:52:07;9.90;;;2.25;;
72394;SDS011;60384;48.152;11.614;2024-02-16T15:55:09;4.60;;;1.85;;
72394;SDS011;60384;48.152;11.614;2024-02-16T16:01:13;3.70;;;1.40;;
72394;SDS011;60384;48.152;11.614;2024-02-16T16:07:18;4.63;;;1.63;;
72394;SDS011;60384;48.152;11.614;2024-02-16T16:10:22;3.22;;;1.17;;
72394;SDS011;60384;48.152;11.614;2024-02-16T16:16:26;5.17;;;1.50;;
72394;SDS011;60384;48.152;11.614;2024-02-16T16:22:33;5.97;;;1.80;;
72394;SDS011;60384;48.152;11.614;2024-02-16T16:25:35;6.82;;;1.58;;
72394;SDS011;60384;48.152;11.614;2024-02-16T16:31:39;4.77;;;1.63;;
72394;SDS011;60384;48.152;11.614;2024-02-16T16:34:41;6.32;;;1.73;;
72394;SDS011;60384;48.152;11.614;2024-02-16T16:37:44;7.97;;;2.00;;
72394;SDS011;60384;48.152;11.614;2024-02-16T16:40:46;4.45;;;1.77;;
72394;SDS011;60384;48.152;11.614;2024-02-16T16:43:48;8.70;;;1.67;;
72394;SDS011;60384;48.152;11.614;2024-02-16T16:46:50;8.10;;;1.73;;
72394;SDS011;60384;48.152;11.614;2024-02-16T16:49:52;6.57;;;1.90;;
72394;SDS011;60384;48.152;11.614;2024-02-16T16:52:56;6.13;;;2.00;;
72394;SDS011;60384;48.152;11.614;2024-02-16T16:55:58;4.53;;;1.90;;
72394;SDS011;60384;48.152;11.614;2024-02-16T16:59:00;7.80;;;2.00;;
72394;SDS011;60384;48.152;11.614;2024-02-16T17:02:02;9.50;;;2.30;;
72394;SDS011;60384;48.152;11.614;2024-02-16T17:05:06;6.32;;;2.03;;
72394;SDS011;60384;48.152;11.614;2024-02-16T17:08:10;4.82;;;1.70;;
72394;SDS011;60384;48.152;11.614;2024-02-16T17:11:12;6.15;;;1.90;;
72394;SDS011;60384;48.152;11.614;2024-02-16T17:14:14;9.10;;;1.92;;
72394;SDS011;60384;48.152;11.614;2024-02-16T17:17:16;6.18;;;2.15;;
72394;SDS011;60384;48.152;11.614;2024-02-16T17:20:19;5.63;;;1.88;;
72394;SDS011;60384;48.152;11.614;2024-02-16T17:23:25;8.88;;;2.53;;
72394;SDS011;60384;48.152;11.614;2024-02-16T17:26:27;6.82;;;2.20;;
72394;SDS011;60384;48.152;11.614;2024-02-16T17:29:29;5.40;;;2.13;;
72394;SDS011;60384;48.152;11.614;2024-02-16T17:32:31;6.57;;;2.20;;
72394;SDS011;60384;48.152;11.614;2024-02-16T17:35:38;8.98;;;2.47;;
72394;SDS011;60384;48.152;11.614;2024-02-16T17:38:43;6.55;;;2.28;;
72394;SDS011;60384;48.152;11.614;2024-02-16T17:41:45;6.72;;;2.08;;
72394;SDS011;60384;48.152;11.614;2024-02-16T17:44:47;6.63;;;2.40;;
72394;SDS011;60384;48.152;11.614;2024-02-16T17:47:49;6.88;;;2.60;;
72394;SDS011;60384;48.152;11.614;2024-02-16T17:50:51;5.68;;;2.72;;
72394;SDS011;60384;48.152;11.614;2024-02-16T17:53:54;5.57;;;2.33;;
72394;SDS011;60384;48.152;11.614;2024-02-16T17:56:56;8.73;;;3.25;;
72394;SDS011;60384;48.152;11.614;2024-02-16T18:00:01;7.75;;;2.80;;
72394;SDS011;60384;48.152;11.614;2024-02-16T18:03:07;7.70;;;2.78;;
72394;SDS011;60384;48.152;11.614;2024-02-16T18:06:09;7.95;;;2.88;;
72394;SDS011;60384;48.152;11.614;2024-02-16T18:12:14;6.93;;;3.30;;
72394;SDS011;60384;48.152;11.614;2024-02-16T18:15:18;10.40;;;3.60;;
72394;SDS011;60384;48.152;11.614;2024-02-16T18:18:23;6.50;;;2.90;;
72394;SDS011;60384;48.152;11.614;2024-02-16T18:21:26;6.03;;;2.78;;
72394;SDS011;60384;48.152;11.614;2024-02-16T18:24:30;7.60;;;3.10;;
72394;SDS011;60384;48.152;11.614;2024-02-16T18:27:32;8.68;;;2.83;;
72394;SDS011;60384;48.152;11.614;2024-02-16T18:30:34;7.63;;;3.13;;
72394;SDS011;60384;48.152;11.614;2024-02-16T18:36:38;11.60;;;3.35;;
72394;SDS011;60384;48.152;11.614;2024-02-16T18:39:41;9.50;;;3.13;;
72394;SDS011;60384;48.152;11.614;2024-02-16T18:42:43;11.55;;;6.10;;
72394;SDS011;60384;48.152;11.614;2024-02-16T18:45:45;8.25;;;2.88;;
72394;SDS011;60384;48.152;11.614;2024-02-16T18:51:49;8.07;;;3.50;;
72394;SDS011;60384;48.152;11.614;2024-02-16T18:54:52;7.70;;;3.80;;
72394;SDS011;60384;48.152;11.614;2024-02-16T18:57:55;9.07;;;3.63;;
72394;SDS011;60384;48.152;11.614;2024-02-16T19:01:00;10.02;;;3.60;;
72394;SDS011;60384;48.152;11.614;2024-02-16T19:04:02;8.20;;;3.40;;
72394;SDS011;60384;48.152;11.614;2024-02-16T19:07:06;9.00;;;3.88;;
72394;SDS011;60384;48.152;11.614;2024-02-16T19:10:10;7.28;;;3.28;;
72394;SDS011;60384;48.152;11.614;2024-02-16T19:13:12;8.75;;;3.78;;
72394;SDS011;60384;48.152;11.614;2024-02-16T19:16:14;8.27;;;3.88;;
72394;SDS011;60384;48.152;11.614;2024-02-16T19:19:19;11.85;;;3.78;;
72394;SDS011;60384;48.152;11.614;2024-02-16T19:22:21;11.93;;;4.10;;
72394;SDS011;60384;48.152;11.614;2024-02-16T19:28:26;10.10;;;4.28;;